Time;durP1;ratioP1;P1;durP2;ratioP2;P2;SDS_P1;SDS_P2;PMS_P1;PMS_P2;Temp;Humidity;BMP_temperature;BMP_pressure;BME280_temperature;BME280_humidity;BME280_pressure;Samples;Min_cycle;Max_cycle;Signal;HPM_P1;HPM_P2
2021/04/03 00:00:57;;;;;;;18.10;12.23;;;7.50;69.90;;;;;;5018940;28;20418;-78
2021/04/03 00:03:26;;;;;;;21.95;11.93;;;7.50;69.70;;;;;;5024816;28;20036;-77
2021/04/03 00:05:52;;;;;;;20.60;12.18;;;7.50;69.70;;;;;;5015826;28;20040;-75
2021/04/03 00:08:25;;;;;;;22.30;12.63;;;7.50;69.40;;;;;;5026111;28;20037;-77
2021/04/03 00:10:54;;;;;;;20.02;11.68;;;7.30;69.50;;;;;;5025860;28;20064;-77
2021/04/03 00:13:22;;;;;;;21.63;13.02;;;6.70;68.10;;;;;;5020110;28;20029;-77
2021/04/03 00:15:51;;;;;;;19.77;11.68;;;7.70;68.30;;;;;;5033536;28;20049;-79
2021/04/03 00:18:17;;;;;;;20.92;11.27;;;7.90;68.20;;;;;;5022734;28;20056;-78
2021/04/03 00:20:46;;;;;;;16.17;11.15;;;8.00;67.20;;;;;;5020725;28;20069;-79
2021/04/03 00:23:14;;;;;;;14.27;8.63;;;8.00;66.60;;;;;;5028025;28;21608;-77
2021/04/03 00:25:40;;;;;;;13.75;8.77;;;7.90;65.20;;;;;;5016081;28;20043;-80
2021/04/03 00:28:06;;;;;;;13.02;8.05;;;7.80;65.60;;;;;;5014467;28;20037;-77
2021/04/03 00:30:32;;;;;;;13.43;8.23;;;;;;;;;;5019000;28;20032;-77
2021/04/03 00:33:01;;;;;;;9.80;6.55;;;8.10;63.60;;;;;;5021801;28;20040;-76
2021/04/03 00:35:31;;;;;;;11.27;7.18;;;9.20;64.60;;;;;;5017920;28;20065;-76
2021/04/03 00:37:58;;;;;;;10.88;6.47;;;8.10;63.50;;;;;;5012485;28;20516;-77
2021/04/03 00:40:48;;;;;;;11.52;6.50;;;8.10;63.40;;;;;;5017850;28;20681;-77
2021/04/03 00:43:20;;;;;;;8.88;5.80;;;8.10;62.90;;;;;;5019333;28;20047;-76
2021/04/03 00:45:46;;;;;;;10.50;6.20;;;8.20;62.80;;;;;;5017576;28;20517;-78
2021/04/03 00:48:13;;;;;;;9.25;5.95;;;8.00;62.70;;;;;;5015793;28;20030;-76
2021/04/03 00:50:45;;;;;;;10.70;5.65;;;8.00;63.20;;;;;;5016549;28;20041;-78
2021/04/03 00:53:14;;;;;;;9.43;5.63;;;7.90;63.20;;;;;;5014358;28;20029;-77
2021/04/03 00:55:43;;;;;;;7.57;5.35;;;7.90;63.40;;;;;;5019294;28;20535;-79
2021/04/03 00:58:09;;;;;;;8.95;4.75;;;7.80;63.70;;;;;;5017345;28;20033;-78
2021/04/03 01:00:35;;;;;;;9.00;4.72;;;7.80;63.40;;;;;;5017356;28;20393;-78
2021/04/03 01:03:01;;;;;;;9.80;4.55;;;7.80;63.30;;;;;;5017463;28;20057;-77
2021/04/03 01:05:28;;;;;;;7.88;4.30;;;7.80;62.50;;;;;;5018353;28;20076;-77
2021/04/03 01:07:55;;;;;;;8.65;4.32;;;7.70;62.90;;;;;;5028014;28;20075;-79
2021/04/03 01:10:32;;;;;;;10.15;4.40;;;7.90;62.40;;;;;;5033360;28;20084;-76
2021/04/03 01:13:23;;;;;;;7.00;4.10;;;7.90;62.40;;;;;;5020654;28;20067;-77
2021/04/03 01:16:01;;;;;;;8.70;4.05;;;7.90;62.40;;;;;;5014625;28;20026;-77
2021/04/03 01:18:51;;;;;;;5.15;3.63;;;8.10;62.00;;;;;;5023996;28;20049;-78
2021/04/03 01:21:39;;;;;;;9.93;4.30;;;7.90;62.40;;;;;;5024729;28;20045;-79
2021/04/03 01:24:36;;;;;;;7.65;4.10;;;7.90;62.40;;;;;;5019201;28;20114;-78
2021/04/03 01:27:17;;;;;;;6.15;3.47;;;7.80;62.80;;;;;;5020022;28;20025;-77
2021/04/03 01:29:51;;;;;;;5.63;3.13;;;8.00;62.10;;;;;;5020521;28;20034;-78
2021/04/03 01:32:25;;;;;;;7.95;3.97;;;8.10;61.40;;;;;;5016636;28;20295;-76
2021/04/03 01:34:56;;;;;;;5.85;3.13;;;8.20;61.40;;;;;;5018889;28;20068;-78
2021/04/03 01:37:24;;;;;;;6.15;3.22;;;8.10;61.30;;;;;;5035635;28;20846;-79
2021/04/03 01:39:53;;;;;;;7.60;3.80;;;8.00;61.20;;;;;;5035047;28;20026;-77
2021/04/03 01:42:24;;;;;;;5.82;3.20;;;8.00;61.50;;;;;;5017892;28;20025;-83
2021/04/03 01:45:02;;;;;;;4.85;3.30;;;8.20;60.70;;;;;;5024348;28;20114;-78
2021/04/03 01:47:33;;;;;;;5.88;3.78;;;8.20;60.60;;;;;;5024469;28;20052;-75
2021/04/03 01:49:59;;;;;;;6.97;3.53;;;8.20;60.40;;;;;;5021146;28;20112;-77
2021/04/03 01:52:29;;;;;;;7.35;3.50;;;8.10;60.80;;;;;;5028417;28;20052;-78
2021/04/03 01:54:56;;;;;;;6.22;3.58;;;7.90;61.30;;;;;;5022549;28;21357;-78
2021/04/03 01:57:24;;;;;;;10.27;3.75;;;8.00;61.40;;;;;;5023104;28;20186;-79
2021/04/03 01:59:51;;;;;;;4.82;3.30;;;7.90;61.50;;;;;;5020629;28;20040;-78
2021/04/03 02:02:18;;;;;;;6.22;3.28;;;8.90;61.90;;;;;;5025188;28;20029;-78
2021/04/03 02:04:47;;;;;;;5.15;3.58;;;8.00;61.50;;;;;;5024188;28;20507;-76
2021/04/03 02:07:16;;;;;;;5.00;3.35;;;8.00;61.20;;;;;;5021577;28;20038;-80
2021/04/03 02:09:46;;;;;;;4.65;3.40;;;8.00;61.50;;;;;;5025077;28;20113;-80
2021/04/03 02:12:12;;;;;;;5.75;3.63;;;8.00;62.00;;;;;;5023843;28;20488;-78
2021/04/03 02:14:39;;;;;;;7.07;3.42;;;7.90;61.30;;;;;;5022427;28;20033;-77
2021/04/03 02:17:05;;;;;;;7.57;4.30;;;7.90;61.50;;;;;;5022882;28;20037;-79
2021/04/03 02:19:33;;;;;;;6.60;3.67;;;7.90;61.90;;;;;;5023537;28;20041;-77
2021/04/03 02:21:59;;;;;;;5.55;3.28;;;7.80;61.50;;;;;;5027867;28;20029;-77
2021/04/03 02:24:25;;;;;;;6.53;3.50;;;7.90;62.00;;;;;;5024747;28;20116;-79
2021/04/03 02:26:51;;;;;;;6.70;3.10;;;7.90;61.90;;;;;;5008468;28;20192;-78
2021/04/03 02:29:17;;;;;;;7.13;3.50;;;7.90;61.70;;;;;;5021938;28;20029;-78
2021/04/03 02:31:42;;;;;;;5.95;3.42;;;7.90;61.60;;;;;;5025353;28;20025;-75
2021/04/03 02:34:08;;;;;;;6.05;3.30;;;8.00;61.40;;;;;;5026463;28;20022;-76
2021/04/03 02:36:34;;;;;;;6.60;3.60;;;8.00;61.10;;;;;;5018870;28;20100;-75
2021/04/03 02:38:59;;;;;;;4.80;3.08;;;8.00;61.30;;;;;;5026300;28;20037;-75
2021/04/03 02:41:43;;;;;;;6.05;3.20;;;8.00;61.40;;;;;;5019072;28;20100;-76
2021/04/03 02:44:19;;;;;;;6.63;3.17;;;8.00;60.90;;;;;;5036429;28;20104;-77
2021/04/03 02:46:52;;;;;;;6.07;3.30;;;7.90;61.30;;;;;;5020417;28;20047;-77
2021/04/03 02:49:23;;;;;;;6.18;3.22;;;7.90;61.20;;;;;;5023054;28;20021;-81
2021/04/03 02:51:53;;;;;;;6.25;3.42;;;7.90;60.80;;;;;;5024878;28;20021;-78
2021/04/03 02:54:21;;;;;;;4.63;3.07;;;7.90;60.90;;;;;;5020731;28;20362;-81
2021/04/03 02:56:47;;;;;;;5.50;3.13;;;8.00;60.90;;;;;;5018976;28;20288;-79
2021/04/03 02:59:21;;;;;;;7.57;3.45;;;8.00;60.50;;;;;;5022130;28;20388;-80
2021/04/03 03:01:49;;;;;;;6.18;3.28;;;9.00;61.30;;;;;;5023236;28;20276;-81
2021/04/03 03:04:17;;;;;;;7.45;3.70;;;8.00;60.60;;;;;;5020656;28;20048;-79
2021/04/03 03:06:44;;;;;;;7.78;3.17;;;8.00;61.00;;;;;;5026561;28;20021;-78
2021/04/03 03:09:15;;;;;;;7.68;3.20;;;8.00;60.70;;;;;;5025459;28;20025;-79
2021/04/03 03:11:44;;;;;;;6.22;3.13;;;7.90;61.20;;;;;;5020091;28;20025;-78
2021/04/03 03:14:12;;;;;;;7.50;3.40;;;8.00;60.70;;;;;;5026851;28;20060;-77
2021/04/03 03:16:40;;;;;;;5.00;2.97;;;8.00;60.20;;;;;;5033542;28;20033;-77
2021/04/03 03:19:08;;;;;;;5.38;2.80;;;8.00;60.00;;;;;;5018225;28;20585;-77
2021/04/03 03:21:35;;;;;;;4.75;2.75;;;8.10;59.70;;;;;;5034954;28;20208;-77
2021/04/03 03:24:00;;;;;;;6.43;3.67;;;10.10;60.60;;;;;;5026780;28;20030;-77
2021/04/03 03:26:27;;;;;;;7.70;2.97;;;;;;;;;;5025305;28;20697;-78
2021/04/03 03:28:55;;;;;;;8.20;2.97;;;7.80;59.80;;;;;;5023907;28;20048;-79
2021/04/03 03:31:20;;;;;;;5.95;2.83;;;7.70;60.80;;;;;;5025659;28;20102;-78
2021/04/03 03:33:46;;;;;;;6.43;3.00;;;7.80;60.50;;;;;;5041591;28;20139;-79
2021/04/03 03:36:12;;;;;;;8.68;3.30;;;7.70;60.50;;;;;;5022252;28;20033;-78
2021/04/03 03:38:38;;;;;;;6.95;2.97;;;7.80;60.60;;;;;;5026409;28;20547;-78
2021/04/03 03:41:04;;;;;;;6.93;3.25;;;7.80;60.60;;;;;;5022530;28;21264;-79
2021/04/03 03:43:30;;;;;;;5.38;2.70;;;7.80;60.10;;;;;;5026873;28;20038;-78
2021/04/03 03:45:57;;;;;;;9.05;3.05;;;7.90;60.20;;;;;;5021707;28;20090;-78
2021/04/03 03:48:22;;;;;;;7.07;2.80;;;8.80;60.80;;;;;;5022093;28;20029;-79
2021/04/03 03:50:48;;;;;;;8.38;3.00;;;10.60;62.00;;;;;;5024536;28;20060;-78
2021/04/03 03:53:17;;;;;;;4.78;2.70;;;7.90;60.00;;;;;;5025089;28;20033;-78
2021/04/03 03:55:42;;;;;;;6.90;3.15;;;7.90;60.00;;;;;;5020769;28;20029;-79
2021/04/03 03:58:08;;;;;;;5.00;2.83;;;7.90;60.40;;;;;;5028187;28;20142;-79
2021/04/03 04:00:33;;;;;;;9.52;3.13;;;7.90;60.20;;;;;;5026199;28;20033;-75
2021/04/03 04:02:59;;;;;;;8.63;3.53;;;7.90;60.60;;;;;;5023567;28;20044;-78
2021/04/03 04:05:24;;;;;;;7.80;3.38;;;8.00;61.00;;;;;;5020666;28;20057;-77
2021/04/03 04:07:53;;;;;;;8.73;3.30;;;7.70;61.30;;;;;;5025278;28;20039;-78
2021/04/03 04:10:19;;;;;;;8.23;3.13;;;7.70;61.30;;;;;;5016534;28;20447;-78
2021/04/03 04:12:44;;;;;;;6.43;3.10;;;7.90;61.40;;;;;;5024247;28;20036;-79
2021/04/03 04:15:10;;;;;;;10.43;3.83;;;7.90;61.40;;;;;;5023826;28;20037;-79
2021/04/03 04:17:38;;;;;;;8.27;3.90;;;7.80;61.40;;;;;;5020374;28;20083;-78
2021/04/03 04:20:04;;;;;;;8.55;3.17;;;7.80;61.80;;;;;;5018368;28;20484;-78
2021/04/03 04:22:30;;;;;;;5.78;3.35;;;7.80;61.80;;;;;;5025475;28;20026;-79
2021/04/03 04:24:56;;;;;;;11.43;4.53;;;7.70;62.20;;;;;;5022650;28;20037;-78
2021/04/03 04:27:21;;;;;;;8.13;4.05;;;7.30;62.20;;;;;;5024920;28;20025;-77
2021/04/03 04:29:47;;;;;;;8.02;3.63;;;7.70;62.80;;;;;;5017079;28;20065;-78
2021/04/03 04:32:13;;;;;;;7.03;3.20;;;7.70;62.80;;;;;;5023482;28;20085;-80
2021/04/03 04:34:39;;;;;;;7.20;3.65;;;;;;;;;;5021667;28;20032;-79
2021/04/03 04:37:04;;;;;;;6.50;3.60;;;7.70;62.40;;;;;;5020432;28;20095;-78
2021/04/03 04:39:30;;;;;;;10.05;3.80;;;7.70;63.00;;;;;;5021765;28;20148;-81
2021/04/03 04:41:56;;;;;;;9.85;3.80;;;7.70;63.30;;;;;;5022674;28;20040;-76
2021/04/03 04:44:22;;;;;;;7.90;3.78;;;7.70;63.30;;;;;;5026287;28;20056;-78
2021/04/03 04:46:48;;;;;;;13.18;3.88;;;7.80;63.10;;;;;;5022849;28;20252;-79
2021/04/03 04:49:14;;;;;;;9.57;3.83;;;7.70;63.00;;;;;;5023404;28;20037;-78
2021/04/03 04:51:40;;;;;;;6.82;3.78;;;7.60;63.30;;;;;;5023313;28;20079;-78
2021/04/03 04:54:05;;;;;;;8.95;4.05;;;7.70;63.00;;;;;;5019294;28;20029;-79
2021/04/03 04:56:31;;;;;;;7.97;3.42;;;7.60;62.50;;;;;;5016900;28;20025;-79
2021/04/03 04:58:56;;;;;;;9.43;3.55;;;7.60;62.60;;;;;;5023951;28;20035;-78
2021/04/03 05:01:22;;;;;;;9.15;3.47;;;7.60;63.00;;;;;;5026321;28;20070;-81
2021/04/03 05:03:48;;;;;;;8.05;3.50;;;7.60;62.50;;;;;;5027509;28;20045;-78
2021/04/03 05:06:14;;;;;;;7.07;3.33;;;7.60;61.70;;;;;;5025053;28;20513;-79
2021/04/03 05:08:40;;;;;;;8.07;3.90;;;7.80;61.00;;;;;;5021336;28;20067;-79
2021/04/03 05:11:05;;;;;;;7.72;3.45;;;8.70;60.40;;;;;;5023320;28;20029;-78
2021/04/03 05:13:31;;;;;;;9.65;3.58;;;7.70;59.90;;;;;;5024413;28;20053;-79
2021/04/03 05:15:57;;;;;;;7.63;3.45;;;7.70;59.40;;;;;;5019543;28;20433;-80
2021/04/03 05:18:25;;;;;;;9.63;3.47;;;7.70;59.80;;;;;;5023855;28;20563;-79
2021/04/03 05:20:50;;;;;;;8.10;3.58;;;7.80;59.20;;;;;;5042067;28;20045;-77
2021/04/03 05:23:17;;;;;;;9.45;2.80;;;7.80;58.60;;;;;;5038617;28;20446;-79
2021/04/03 05:25:43;;;;;;;11.55;3.40;;;7.80;58.80;;;;;;5025307;28;20094;-78
2021/04/03 05:28:08;;;;;;;7.80;3.25;;;7.90;58.80;;;;;;5021684;28;20117;-78
2021/04/03 05:30:34;;;;;;;11.77;4.03;;;7.80;58.60;;;;;;5009128;28;20115;-80
2021/04/03 05:32:59;;;;;;;12.57;3.60;;;7.90;58.40;;;;;;5023349;28;20464;-78
2021/04/03 05:35:25;;;;;;;7.10;3.85;;;7.90;58.20;;;;;;5021082;28;20416;-79
2021/04/03 05:37:50;;;;;;;10.48;3.55;;;7.80;58.30;;;;;;5017038;28;20638;-79
2021/04/03 05:40:16;;;;;;;10.48;3.50;;;7.80;58.70;;;;;;5019642;28;20163;-78
2021/04/03 05:42:46;;;;;;;7.95;3.67;;;7.80;58.90;;;;;;5017435;28;20052;-77
2021/04/03 05:45:18;;;;;;;7.95;3.55;;;7.80;59.20;;;;;;5025560;28;20110;-79
2021/04/03 05:47:44;;;;;;;8.68;3.30;;;7.70;59.30;;;;;;5037444;28;20034;-78
2021/04/03 05:50:11;;;;;;;5.95;2.97;;;8.20;59.80;;;;;;5023664;28;21275;-79
2021/04/03 05:52:37;;;;;;;7.65;3.13;;;7.80;60.00;;;;;;5030877;28;20120;-78
2021/04/03 05:55:03;;;;;;;7.65;3.15;;;7.80;59.60;;;;;;5021118;28;20036;-78
2021/04/03 05:57:30;;;;;;;7.43;3.58;;;7.90;59.30;;;;;;5021894;28;20507;-78
2021/04/03 05:59:55;;;;;;;8.40;3.17;;;7.90;59.70;;;;;;5022795;28;20025;-78
2021/04/03 06:02:21;;;;;;;7.85;3.20;;;7.90;60.30;;;;;;5024243;28;20041;-78
2021/04/03 06:04:47;;;;;;;8.32;3.42;;;8.30;61.10;;;;;;5023909;28;20037;-78
2021/04/03 06:07:13;;;;;;;9.68;4.20;;;8.00;59.90;;;;;;5026507;28;20404;-77
2021/04/03 06:09:40;;;;;;;8.23;3.83;;;9.80;61.00;;;;;;5016910;28;20075;-79
2021/04/03 06:12:06;;;;;;;8.35;3.80;;;8.00;59.90;;;;;;5019663;28;20284;-78
2021/04/03 06:14:36;;;;;;;9.23;4.15;;;8.00;60.40;;;;;;5019747;28;20129;-78
2021/04/03 06:17:02;;;;;;;11.75;4.70;;;8.00;60.60;;;;;;5023348;28;20055;-77
2021/04/03 06:19:28;;;;;;;11.35;4.10;;;8.00;61.10;;;;;;5026862;28;20029;-79
2021/04/03 06:21:53;;;;;;;9.68;4.63;;;8.00;61.50;;;;;;5027352;28;20037;-78
2021/04/03 06:24:25;;;;;;;12.15;4.50;;;8.00;61.90;;;;;;5039775;28;20022;-78
2021/04/03 06:26:54;;;;;;;11.60;3.95;;;8.00;62.10;;;;;;5022887;28;20029;-80
2021/04/03 06:29:26;;;;;;;9.55;3.95;;;8.00;62.10;;;;;;5024558;28;20018;-77
2021/04/03 06:31:53;;;;;;;12.80;4.13;;;8.00;62.20;;;;;;5029961;28;20080;-79
2021/04/03 06:34:26;;;;;;;10.50;4.38;;;8.00;62.20;;;;;;5025974;28;20030;-79
2021/04/03 06:36:52;;;;;;;8.20;4.20;;;8.00;62.60;;;;;;5037798;28;20025;-79
2021/04/03 06:39:17;;;;;;;9.10;4.18;;;8.00;62.50;;;;;;5025118;28;20065;-80
2021/04/03 06:41:43;;;;;;;9.57;4.00;;;8.10;62.40;;;;;;5024922;28;20047;-80
2021/04/03 06:44:11;;;;;;;10.25;4.20;;;8.30;62.40;;;;;;5024390;28;20029;-81
2021/04/03 06:46:38;;;;;;;10.35;4.25;;;8.30;61.80;;;;;;5026695;28;20466;-78
2021/04/03 06:49:04;;;;;;;9.90;4.35;;;8.30;62.20;;;;;;5026404;28;20029;-80
2021/04/03 06:51:32;;;;;;;21.63;9.43;;;8.30;61.90;;;;;;5029424;28;20025;-78
2021/04/03 06:53:59;;;;;;;10.68;4.05;;;8.40;61.70;;;;;;5031564;28;20550;-79
2021/04/03 06:56:27;;;;;;;7.82;4.10;;;8.50;61.80;;;;;;5028029;28;20584;-78
2021/04/03 06:59:13;;;;;;;10.98;4.60;;;9.10;61.70;;;;;;5022709;28;20033;-79
2021/04/03 07:01:46;;;;;;;9.70;4.43;;;8.50;61.40;;;;;;5036154;28;20030;-79
2021/04/03 07:04:30;;;;;;;8.57;4.38;;;8.40;61.80;;;;;;5027227;28;20022;-79
2021/04/03 07:06:56;;;;;;;11.50;5.18;;;8.50;61.30;;;;;;5043373;28;20749;-79
2021/04/03 07:09:23;;;;;;;12.23;5.03;;;8.50;61.60;;;;;;5027364;28;20033;-81
2021/04/03 07:11:54;;;;;;;9.98;4.82;;;8.50;61.90;;;;;;5025741;28;20492;-79
2021/04/03 07:14:22;;;;;;;14.10;5.50;;;8.60;61.80;;;;;;5016771;28;20025;-79
2021/04/03 07:16:50;;;;;;;10.18;5.65;;;10.00;63.50;;;;;;5022597;28;20021;-78
2021/04/03 07:19:18;;;;;;;9.98;5.07;;;8.50;62.70;;;;;;5023284;28;20042;-81
2021/04/03 07:21:44;;;;;;;11.02;5.95;;;8.50;62.30;;;;;;5013782;28;20124;-79
2021/04/03 07:24:11;;;;;;;10.50;5.57;;;8.60;62.20;;;;;;5019159;28;20088;-80
2021/04/03 07:26:41;;;;;;;11.20;5.68;;;8.60;62.70;;;;;;5013640;28;20033;-77
2021/04/03 07:29:07;;;;;;;16.17;6.00;;;;;;;;;;5020482;28;20037;-80
2021/04/03 07:31:46;;;;;;;11.88;5.53;;;8.70;62.20;;;;;;5035507;28;20034;-79
2021/04/03 07:34:14;;;;;;;12.82;5.68;;;8.80;62.60;;;;;;5021957;28;20069;-80
2021/04/03 07:36:41;;;;;;;11.20;5.43;;;8.70;62.60;;;;;;5013533;28;20033;-79
2021/04/03 07:39:39;;;;;;;10.60;5.40;;;9.20;63.50;;;;;;5024608;28;20334;-79
2021/04/03 07:42:06;;;;;;;10.85;5.07;;;8.80;62.70;;;;;;5024180;28;20033;-81
2021/04/03 07:44:37;;;;;;;12.10;5.55;;;8.80;62.60;;;;;;5016579;28;20328;-77
2021/04/03 07:47:18;;;;;;;;;;;9.00;62.40;;;;;;5014050;28;20541;-78
2021/04/03 07:49:44;;;;;;;;;;;8.90;62.20;;;;;;5018119;28;19913;-81
2021/04/03 07:52:09;;;;;;;11.00;5.55;;;8.90;62.10;;;;;;5018889;28;19913;-80
2021/04/03 07:54:35;;;;;;;9.90;5.47;;;9.00;62.20;;;;;;5024595;28;20025;-79
2021/04/03 07:57:06;;;;;;;11.07;5.88;;;8.90;62.40;;;;;;5018585;28;20043;-80
2021/04/03 07:59:49;;;;;;;10.93;5.28;;;8.90;61.90;;;;;;5023870;28;20022;-79
2021/04/03 08:02:23;;;;;;;12.38;5.43;;;8.90;62.30;;;;;;5019554;28;20619;-79
2021/04/03 08:04:49;;;;;;;12.70;5.30;;;9.00;61.00;;;;;;5021754;28;20132;-78
2021/04/03 08:07:18;;;;;;;8.82;5.20;;;9.00;61.50;;;;;;5035928;28;20598;-79
2021/04/03 08:09:44;;;;;;;11.93;5.15;;;9.10;61.50;;;;;;5030462;28;20018;-78
2021/04/03 08:12:10;;;;;;;7.97;4.78;;;9.10;60.20;;;;;;5013701;28;20374;-80
2021/04/03 08:14:36;;;;;;;8.98;4.57;;;9.10;60.70;;;;;;5017871;28;20018;-78
2021/04/03 08:17:05;;;;;;;9.90;5.07;;;9.10;60.30;;;;;;5013628;28;20036;-77
2021/04/03 08:19:41;;;;;;;13.38;5.70;;;9.10;60.20;;;;;;5020161;28;20057;-79
2021/04/03 08:22:10;;;;;;;15.98;5.32;;;9.00;60.40;;;;;;5019627;28;20080;-79
2021/04/03 08:24:35;;;;;;;12.45;5.72;;;9.90;60.90;;;;;;5017076;28;20038;-78
2021/04/03 08:27:01;;;;;;;14.40;5.70;;;9.20;60.20;;;;;;5019790;28;20420;-79
2021/04/03 08:29:33;;;;;;;12.82;5.20;;;9.30;60.10;;;;;;5017074;28;20029;-81
2021/04/03 08:32:01;;;;;;;10.18;5.45;;;9.40;60.50;;;;;;5017165;28;20022;-78
2021/04/03 08:34:26;;;;;;;10.95;5.32;;;9.50;60.20;;;;;;5031495;28;20027;-80
2021/04/03 08:36:53;;;;;;;17.13;6.45;;;9.70;59.80;;;;;;5015927;28;20152;-77
2021/04/03 08:39:21;;;;;;;11.23;5.70;;;11.40;60.10;;;;;;5021149;28;20083;-78
2021/04/03 08:41:52;;;;;;;9.95;5.20;;;9.80;59.40;;;;;;5018900;28;20447;-78
2021/04/03 08:44:29;;;;;;;11.07;5.38;;;10.80;59.90;;;;;;5019607;28;20036;-81
2021/04/03 08:46:59;;;;;;;15.30;6.70;;;9.80;59.10;;;;;;5018819;28;20032;-78
2021/04/03 08:49:29;;;;;;;13.30;6.10;;;9.70;59.50;;;;;;5018738;28;20030;-78
2021/04/03 08:51:54;;;;;;;13.05;5.85;;;9.60;59.90;;;;;;5017280;28;20037;-81
2021/04/03 08:54:20;;;;;;;10.73;5.70;;;9.60;59.60;;;;;;5019233;28;20034;-76
2021/04/03 08:56:46;;;;;;;13.77;5.78;;;9.50;59.90;;;;;;5012595;28;20030;-80
2021/04/03 08:59:16;;;;;;;10.63;6.80;;;9.50;59.80;;;;;;5018396;28;20366;-80
2021/04/03 09:01:48;;;;;;;13.43;6.50;;;9.50;59.90;;;;;;5027168;28;20037;-83
2021/04/03 09:04:14;;;;;;;12.55;6.50;;;9.40;60.20;;;;;;5010884;28;20045;-78
2021/04/03 09:06:57;;;;;;;14.30;6.50;;;9.40;60.70;;;;;;5018731;28;20068;-75
2021/04/03 09:09:25;;;;;;;13.43;6.47;;;9.40;60.50;;;;;;5016830;28;20030;-78
2021/04/03 09:12:04;;;;;;;15.20;6.22;;;9.50;59.70;;;;;;5013077;28;20029;-79
2021/04/03 09:14:32;;;;;;;13.60;5.93;;;9.50;60.10;;;;;;5013602;28;20084;-78
2021/04/03 09:17:17;;;;;;;14.27;6.70;;;9.70;59.90;;;;;;5015630;28;20048;-77
2021/04/03 09:19:43;;;;;;;14.95;6.70;;;9.60;59.60;;;;;;5022101;28;20034;-80
2021/04/03 09:22:13;;;;;;;14.15;5.95;;;9.60;59.70;;;;;;5022660;28;20034;-79
2021/04/03 09:24:42;;;;;;;14.15;5.93;;;9.60;59.90;;;;;;5033037;28;20121;-78
2021/04/03 09:27:14;;;;;;;13.52;5.97;;;9.60;59.20;;;;;;5018358;28;20384;-78
2021/04/03 09:29:41;;;;;;;10.80;5.63;;;9.60;59.40;;;;;;5035951;28;20021;-79
2021/04/03 09:32:09;;;;;;;12.10;5.82;;;9.50;59.90;;;;;;5001908;28;20124;-78
2021/04/03 09:34:36;;;;;;;12.00;6.32;;;9.60;58.90;;;;;;5016367;28;21095;-80
2021/04/03 09:37:15;;;;;;;16.05;6.93;;;11.40;59.40;;;;;;5016465;28;20524;-79
2021/04/03 09:39:49;;;;;;;13.45;5.60;;;9.70;58.20;;;;;;5022520;28;20029;-78
2021/04/03 09:42:18;;;;;;;11.02;5.07;;;9.80;57.80;;;;;;5019434;28;20041;-80
2021/04/03 09:44:45;;;;;;;12.07;5.32;;;9.80;57.30;;;;;;5018508;28;20033;-82
2021/04/03 09:47:12;;;;;;;10.70;5.07;;;9.80;56.70;;;;;;5006213;28;20026;-78
2021/04/03 09:49:39;;;;;;;10.27;5.35;;;9.90;56.20;;;;;;5020913;28;20050;-80
2021/04/03 09:52:05;;;;;;;10.20;4.80;;;10.00;56.10;;;;;;5017406;28;20045;-79
2021/04/03 09:54:31;;;;;;;9.50;4.68;;;10.10;55.50;;;;;;5025150;28;20531;-82
2021/04/03 09:56:57;;;;;;;9.57;4.60;;;10.00;56.10;;;;;;5022803;28;20022;-81
2021/04/03 09:59:23;;;;;;;8.68;4.97;;;10.10;55.50;;;;;;5023661;28;20025;-82
2021/04/03 10:01:49;;;;;;;14.57;5.63;;;10.10;56.40;;;;;;5017551;28;21236;-82
2021/04/03 10:04:17;;;;;;;9.77;5.22;;;;;;;;;;5019497;28;20486;-79
2021/04/03 10:06:43;;;;;;;11.27;5.55;;;9.90;56.50;;;;;;5023456;28;20026;-82
2021/04/03 10:09:09;;;;;;;11.77;5.43;;;10.10;56.60;;;;;;5022998;28;20040;-81
2021/04/03 10:11:35;;;;;;;9.57;4.65;;;;;;;;;;5022688;28;20111;-78
2021/04/03 10:14:01;;;;;;;9.90;4.65;;;;;;;;;;5019207;28;20030;-80
2021/04/03 10:16:27;;;;;;;8.75;4.32;;;10.40;53.60;;;;;;5033379;28;20125;-77
2021/04/03 10:18:53;;;;;;;10.15;5.00;;;;;;;;;;5021910;28;20048;-80
2021/04/03 10:21:23;;;;;;;8.50;4.70;;;10.40;52.80;;;;;;5039055;28;20037;-77
2021/04/03 10:23:49;;;;;;;10.55;5.38;;;12.40;54.40;;;;;;5024585;28;20175;-80
2021/04/03 10:26:15;;;;;;;15.52;5.20;;;12.30;55.30;;;;;;5016278;28;20116;-78
2021/04/03 10:28:40;;;;;;;10.85;4.90;;;10.50;53.80;;;;;;5021436;28;20152;-81
2021/04/03 10:31:08;;;;;;;9.27;4.07;;;10.70;53.90;;;;;;5016679;28;20044;-79
2021/04/03 10:33:36;;;;;;;8.57;4.53;;;10.70;53.70;;;;;;5020745;28;20098;-79
2021/04/03 10:36:02;;;;;;;13.27;5.20;;;;;;;;;;5018784;28;20037;-79
2021/04/03 10:38:27;;;;;;;11.85;4.30;;;10.50;53.60;;;;;;5015431;28;20084;-80
2021/04/03 10:40:53;;;;;;;11.50;4.82;;;10.60;54.20;;;;;;5020050;28;20044;-76
2021/04/03 10:43:19;;;;;;;11.50;4.45;;;10.70;54.00;;;;;;5036499;28;20369;-77
2021/04/03 10:45:45;;;;;;;7.65;3.90;;;10.60;54.20;;;;;;5014055;28;20034;-82
2021/04/03 10:48:10;;;;;;;8.98;3.50;;;11.00;52.50;;;;;;5017498;28;20101;-79
2021/04/03 10:50:36;;;;;;;8.57;3.55;;;11.30;51.90;;;;;;5020841;28;20025;-80
2021/04/03 10:53:02;;;;;;;6.63;3.35;;;11.50;51.40;;;;;;5019462;28;20032;-81
2021/04/03 10:55:31;;;;;;;9.95;3.30;;;11.90;50.60;;;;;;5018752;28;20029;-83
2021/04/03 10:57:57;;;;;;;7.55;3.78;;;12.00;49.60;;;;;;5019674;28;20090;-78
2021/04/03 11:00:23;;;;;;;8.10;3.47;;;11.30;50.50;;;;;;5010793;28;20040;-80
2021/04/03 11:02:49;;;;;;;6.28;3.30;;;11.50;51.50;;;;;;5032008;28;20038;-78
2021/04/03 11:05:14;;;;;;;7.03;2.83;;;11.80;50.60;;;;;;5021113;28;20049;-79
2021/04/03 11:07:40;;;;;;;9.15;3.30;;;12.20;49.30;;;;;;5017374;28;20392;-80
2021/04/03 11:10:06;;;;;;;8.23;3.38;;;15.00;50.00;;;;;;5017769;28;20041;-79
2021/04/03 11:12:32;;;;;;;6.38;2.83;;;12.90;47.70;;;;;;5021424;28;20454;-80
2021/04/03 11:14:58;;;;;;;8.75;3.05;;;12.50;47.70;;;;;;5021604;28;20029;-76
2021/04/03 11:17:23;;;;;;;7.28;2.72;;;12.60;47.80;;;;;;5031916;28;20171;-82
2021/04/03 11:19:51;;;;;;;10.40;4.05;;;12.60;48.30;;;;;;5017666;28;20044;-79
2021/04/03 11:22:17;;;;;;;8.43;3.80;;;13.00;48.40;;;;;;5019139;28;20056;-80
2021/04/03 11:24:42;;;;;;;7.07;4.00;;;13.30;47.70;;;;;;5022754;28;20021;-81
2021/04/03 11:27:08;;;;;;;9.13;3.72;;;13.60;47.20;;;;;;5018264;28;20041;-81
2021/04/03 11:29:34;;;;;;;7.95;4.30;;;13.60;47.40;;;;;;5023185;28;20021;-80
2021/04/03 11:32:01;;;;;;;11.32;4.53;;;15.10;48.00;;;;;;5020620;28;20025;-80
2021/04/03 11:34:27;;;;;;;8.40;4.13;;;13.10;47.80;;;;;;5019467;28;20021;-81
2021/04/03 11:36:55;;;;;;;8.27;3.60;;;12.90;48.60;;;;;;5023319;28;20052;-78
2021/04/03 11:39:21;;;;;;;12.10;3.58;;;12.60;48.30;;;;;;5025601;28;20037;-78
2021/04/03 11:41:49;;;;;;;7.93;3.55;;;12.50;48.80;;;;;;5029256;28;20041;-76
2021/04/03 11:44:14;;;;;;;7.18;3.42;;;12.20;49.20;;;;;;5013756;28;20148;-77
2021/04/03 11:46:40;;;;;;;23.73;10.85;;;12.10;49.50;;;;;;5017280;28;20102;-78
2021/04/03 11:49:06;;;;;;;8.32;3.55;;;11.80;50.50;;;;;;5017217;28;20136;-78
2021/04/03 11:51:32;;;;;;;7.85;3.75;;;11.90;49.90;;;;;;5016424;28;20030;-79
2021/04/03 11:53:58;;;;;;;6.20;3.05;;;10.30;48.30;;;;;;5022673;28;20052;-76
2021/04/03 11:56:26;;;;;;;7.88;3.10;;;12.00;49.40;;;;;;5023031;28;20416;-78
2021/04/03 11:58:51;;;;;;;7.25;3.05;;;11.90;49.80;;;;;;5028908;28;20037;-78
2021/04/03 12:01:17;;;;;;;8.48;3.05;;;11.80;49.90;;;;;;5023219;28;20107;-77
2021/04/03 12:03:43;;;;;;;6.85;2.75;;;11.90;49.40;;;;;;5024127;28;20061;-78
2021/04/03 12:06:11;;;;;;;7.35;2.50;;;11.90;49.30;;;;;;5012449;28;20128;-81
2021/04/03 12:08:41;;;;;;;7.28;3.30;;;12.00;48.40;;;;;;5014136;28;20032;-77
2021/04/03 12:11:07;;;;;;;7.95;2.78;;;12.10;48.60;;;;;;5023554;28;20025;-78
2021/04/03 12:13:35;;;;;;;7.60;2.42;;;12.50;47.80;;;;;;5017343;28;20080;-78
2021/04/03 12:16:01;;;;;;;5.55;2.50;;;12.00;46.20;;;;;;5014974;28;20021;-77
2021/04/03 12:18:26;;;;;;;6.47;2.53;;;13.20;45.30;;;;;;5017061;28;20049;-78
2021/04/03 12:20:52;;;;;;;4.80;2.17;;;13.50;44.30;;;;;;5014932;28;20045;-77
2021/04/03 12:23:17;;;;;;;5.68;2.30;;;13.60;43.70;;;;;;5012987;28;20037;-77
2021/04/03 12:25:43;;;;;;;5.50;2.60;;;13.70;43.90;;;;;;5009350;28;20109;-77
2021/04/03 12:28:09;;;;;;;4.07;2.10;;;13.50;43.70;;;;;;5012393;28;20216;-75
2021/04/03 12:30:34;;;;;;;8.35;2.75;;;13.60;43.80;;;;;;5003757;28;20056;-76
2021/04/03 12:33:02;;;;;;;4.82;2.20;;;15.10;44.50;;;;;;4996288;28;20022;-77
2021/04/03 12:35:28;;;;;;;5.57;2.03;;;13.60;43.40;;;;;;5001717;28;20033;-76
2021/04/03 12:37:54;;;;;;;6.55;2.78;;;14.10;42.60;;;;;;5008160;28;20977;-76
2021/04/03 12:40:19;;;;;;;5.15;2.40;;;14.10;43.00;;;;;;5011905;28;20030;-76
2021/04/03 12:42:47;;;;;;;5.22;2.30;;;14.10;43.10;;;;;;5006160;28;20034;-75
2021/04/03 12:45:13;;;;;;;5.03;2.45;;;14.40;43.70;;;;;;5008729;28;20034;-76
2021/04/03 12:47:39;;;;;;;10.02;2.83;;;14.00;43.70;;;;;;5010892;28;20040;-76
2021/04/03 12:50:07;;;;;;;8.15;2.67;;;14.60;43.60;;;;;;5009800;28;20033;-75
2021/04/03 12:52:32;;;;;;;6.88;2.60;;;14.30;43.30;;;;;;5007646;28;20079;-76
2021/04/03 12:54:58;;;;;;;6.50;2.40;;;14.40;42.30;;;;;;5008819;28;20025;-76
2021/04/03 12:57:23;;;;;;;6.93;2.70;;;14.60;41.70;;;;;;5009410;28;20400;-76